Time;durP1;ratioP1;P1;durP2;ratioP2;P2;SDS_P1;SDS_P2;PMS_P1;PMS_P2;Temp;Humidity;BMP_temperature;BMP_pressure;BME280_temperature;BME280_humidity;BME280_pressure;Samples;Min_cycle;Max_cycle;Signal;HPM_P1;HPM_P2
2021/10/10 00:00:32;;;;;;;12.77;9.70;;;13.40;53.80;;;;;;5051157;28;20197;-45
2021/10/10 00:02:57;;;;;;;13.20;10.40;;;13.30;53.90;;;;;;5051360;28;20428;-46
2021/10/10 00:05:23;;;;;;;11.30;9.40;;;13.30;53.90;;;;;;5051116;28;20422;-50
2021/10/10 00:07:49;;;;;;;12.60;10.50;;;13.20;54.00;;;;;;5051800;28;20268;-48
2021/10/10 00:10:16;;;;;;;10.47;9.30;;;13.20;53.70;;;;;;5050905;28;20195;-48
2021/10/10 00:12:42;;;;;;;11.90;10.00;;;13.10;53.70;;;;;;5050967;28;20188;-45
2021/10/10 00:15:11;;;;;;;14.63;9.90;;;13.10;54.00;;;;;;5050732;28;20529;-47
2021/10/10 00:17:37;;;;;;;12.40;10.00;;;13.00;54.00;;;;;;5051313;28;20459;-47
2021/10/10 00:20:06;;;;;;;11.60;10.40;;;13.00;53.90;;;;;;5049342;28;20419;-45
2021/10/10 00:22:31;;;;;;;14.57;11.20;;;13.00;54.00;;;;;;5050998;28;20457;-47
2021/10/10 00:24:57;;;;;;;13.87;9.90;;;13.00;54.00;;;;;;5051090;28;20411;-48
2021/10/10 00:27:23;;;;;;;10.53;9.53;;;12.90;54.00;;;;;;5052290;28;20431;-48
2021/10/10 00:29:49;;;;;;;17.87;10.00;;;12.80;54.00;;;;;;5055148;28;20203;-52
2021/10/10 00:32:15;;;;;;;11.70;9.20;;;12.80;54.30;;;;;;5055051;28;20243;-48
2021/10/10 00:34:41;;;;;;;12.70;9.23;;;12.80;54.60;;;;;;5055035;28;21081;-45
2021/10/10 00:37:07;;;;;;;12.70;9.90;;;12.80;54.70;;;;;;5055173;28;20702;-49
2021/10/10 00:39:32;;;;;;;12.27;9.73;;;12.80;54.80;;;;;;5055001;28;20192;-47
2021/10/10 00:41:58;;;;;;;11.30;9.00;;;12.80;54.80;;;;;;5054849;28;20203;-46
2021/10/10 00:44:25;;;;;;;14.00;9.53;;;12.80;55.00;;;;;;5054683;28;20672;-46
2021/10/10 00:46:51;;;;;;;12.17;9.43;;;12.80;55.40;;;;;;5053559;28;20427;-47
2021/10/10 00:49:17;;;;;;;12.97;10.00;;;12.70;55.50;;;;;;5054471;28;20937;-46
2021/10/10 00:51:44;;;;;;;15.50;10.37;;;12.70;55.80;;;;;;5054783;28;20481;-49
2021/10/10 00:54:11;;;;;;;15.43;10.60;;;12.70;56.10;;;;;;5054387;28;20231;-49
2021/10/10 00:56:37;;;;;;;11.17;10.07;;;12.70;56.40;;;;;;5053256;28;20508;-49
2021/10/10 00:59:05;;;;;;;12.47;10.30;;;12.60;56.40;;;;;;5054386;28;20422;-45
2021/10/10 01:01:32;;;;;;;12.87;10.93;;;12.60;56.80;;;;;;5054573;28;20514;-48
2021/10/10 01:03:57;;;;;;;13.43;10.27;;;12.60;56.80;;;;;;5054510;28;21181;-50
2021/10/10 01:06:23;;;;;;;15.07;10.73;;;12.50;56.80;;;;;;5054834;28;20427;-46
2021/10/10 01:08:49;;;;;;;11.53;9.93;;;12.50;56.80;;;;;;5054559;28;20255;-46
2021/10/10 01:11:16;;;;;;;16.67;10.23;;;12.50;56.80;;;;;;5054780;28;20189;-46
2021/10/10 01:13:42;;;;;;;11.73;9.80;;;12.60;56.60;;;;;;5052041;28;20490;-48
2021/10/10 01:16:09;;;;;;;13.07;10.57;;;12.70;56.40;;;;;;5054681;28;20419;-45
2021/10/10 01:18:34;;;;;;;12.73;10.20;;;12.70;56.30;;;;;;5054553;28;20276;-46
2021/10/10 01:21:00;;;;;;;15.53;10.37;;;12.70;56.30;;;;;;5054036;28;20502;-50
2021/10/10 01:23:26;;;;;;;14.53;10.60;;;12.70;56.20;;;;;;5054168;28;20189;-47
2021/10/10 01:25:52;;;;;;;11.57;9.87;;;12.70;56.20;;;;;;5053876;28;20196;-46
2021/10/10 01:28:19;;;;;;;11.73;10.00;;;12.60;56.10;;;;;;5055060;28;20196;-45
2021/10/10 01:30:44;;;;;;;13.07;9.80;;;12.60;56.10;;;;;;5053551;28;20419;-46
2021/10/10 01:33:12;;;;;;;12.20;10.33;;;12.50;56.00;;;;;;5054012;28;21324;-45
2021/10/10 01:35:39;;;;;;;13.20;10.77;;;12.50;55.90;;;;;;5035896;28;20751;-46
2021/10/10 01:38:05;;;;;;;12.17;10.87;;;12.50;55.90;;;;;;5053494;28;20427;-45
2021/10/10 01:40:33;;;;;;;14.00;10.17;;;12.50;55.70;;;;;;5052104;28;20423;-45
2021/10/10 01:42:58;;;;;;;13.83;11.03;;;12.50;55.60;;;;;;5053904;28;20844;-46
2021/10/10 01:45:24;;;;;;;14.47;10.00;;;12.50;55.50;;;;;;5053663;28;20423;-45
2021/10/10 01:47:51;;;;;;;11.43;9.67;;;12.40;55.50;;;;;;5054265;28;20231;-45
2021/10/10 01:50:17;;;;;;;16.13;9.80;;;12.50;55.50;;;;;;5013640;28;20799;-45
2021/10/10 01:52:46;;;;;;;12.40;9.60;;;12.40;55.40;;;;;;5013978;28;20441;-45
2021/10/10 01:55:12;;;;;;;13.27;9.50;;;12.40;55.50;;;;;;5013749;28;20234;-46
2021/10/10 01:57:38;;;;;;;15.03;12.50;;;12.40;55.60;;;;;;5012772;28;20429;-46
2021/10/10 02:00:05;;;;;;;16.13;11.47;;;12.40;55.30;;;;;;5013738;28;20425;-46
2021/10/10 02:02:30;;;;;;;17.17;11.80;;;12.30;54.50;;;;;;5013691;28;20842;-45
2021/10/10 02:04:56;;;;;;;17.97;11.53;;;12.20;53.80;;;;;;5011959;28;20508;-45
2021/10/10 02:07:21;;;;;;;14.23;11.50;;;11.90;54.20;;;;;;5014283;28;20563;-45
2021/10/10 02:09:47;;;;;;;12.40;11.10;;;11.80;54.30;;;;;;5013542;28;20225;-45
2021/10/10 02:12:13;;;;;;;11.50;10.00;;;11.80;54.20;;;;;;5013556;28;20201;-45
2021/10/10 02:14:38;;;;;;;12.50;9.60;;;11.80;54.20;;;;;;5013545;28;20225;-45
2021/10/10 02:17:04;;;;;;;12.60;10.30;;;11.70;55.10;;;;;;5014183;28;20210;-46
2021/10/10 02:19:30;;;;;;;12.00;9.43;;;11.60;54.80;;;;;;5013199;28;20285;-45
2021/10/10 02:21:56;;;;;;;10.93;9.03;;;11.60;55.10;;;;;;5013548;28;20197;-47
2021/10/10 02:24:22;;;;;;;11.40;8.97;;;11.60;55.20;;;;;;5013219;28;20202;-46
2021/10/10 02:26:48;;;;;;;13.87;9.00;;;11.60;55.70;;;;;;5014054;28;20455;-46
2021/10/10 02:29:14;;;;;;;10.20;9.10;;;11.60;55.10;;;;;;5013123;28;20202;-45
2021/10/10 02:31:42;;;;;;;12.53;10.13;;;11.60;55.40;;;;;;5011437;28;20214;-46
2021/10/10 02:34:13;;;;;;;10.60;8.13;;;11.50;55.70;;;;;;5012979;28;20511;-45
2021/10/10 02:36:40;;;;;;;11.07;7.70;;;11.50;56.00;;;;;;5013724;28;20531;-45
2021/10/10 02:39:06;;;;;;;9.57;8.57;;;11.50;55.60;;;;;;5013133;28;20413;-45
2021/10/10 02:41:31;;;;;;;15.00;9.47;;;11.50;55.30;;;;;;5013082;28;20471;-45
2021/10/10 02:43:57;;;;;;;10.90;9.27;;;11.50;55.10;;;;;;5012887;28;20193;-46
2021/10/10 02:46:23;;;;;;;11.07;7.67;;;11.50;55.00;;;;;;5013634;28;20232;-45
2021/10/10 02:48:49;;;;;;;10.30;8.33;;;11.50;55.10;;;;;;5028400;28;20232;-49
2021/10/10 02:51:14;;;;;;;10.90;8.50;;;11.50;55.00;;;;;;5052690;28;20215;-47
2021/10/10 02:53:40;;;;;;;10.53;8.47;;;11.50;54.90;;;;;;5052077;28;20294;-44
2021/10/10 02:56:06;;;;;;;9.40;8.33;;;11.50;55.00;;;;;;5052915;28;20203;-47
2021/10/10 02:58:32;;;;;;;10.37;9.00;;;11.50;55.10;;;;;;5049482;28;20280;-46
2021/10/10 03:00:58;;;;;;;10.57;7.90;;;11.50;54.90;;;;;;5052192;28;20469;-47
2021/10/10 03:03:24;;;;;;;11.00;9.50;;;11.50;54.80;;;;;;5052232;28;20839;-46
2021/10/10 03:05:49;;;;;;;11.13;8.17;;;11.50;55.20;;;;;;5052491;28;20275;-45
2021/10/10 03:08:15;;;;;;;11.20;8.87;;;11.40;54.30;;;;;;5052450;28;20191;-45
2021/10/10 03:10:40;;;;;;;14.23;9.37;;;11.30;54.60;;;;;;5052090;28;20200;-47
2021/10/10 03:13:06;;;;;;;10.23;8.63;;;11.30;55.30;;;;;;5051861;28;20192;-45
2021/10/10 03:15:36;;;;;;;12.67;9.17;;;11.30;54.60;;;;;;5051955;28;20203;-45
2021/10/10 03:18:02;;;;;;;11.37;8.90;;;11.30;55.10;;;;;;5052379;28;20449;-46
2021/10/10 03:20:28;;;;;;;12.30;9.03;;;11.30;55.20;;;;;;5051793;28;20419;-45
2021/10/10 03:22:53;;;;;;;9.27;8.27;;;11.30;55.50;;;;;;5052092;28;20415;-45
2021/10/10 03:25:19;;;;;;;17.03;9.43;;;11.20;55.80;;;;;;5050275;28;20207;-45
2021/10/10 03:27:44;;;;;;;13.93;8.40;;;11.30;55.40;;;;;;5034396;28;20706;-45
2021/10/10 03:30:10;;;;;;;10.20;8.77;;;11.30;54.90;;;;;;5051902;28;20259;-46
2021/10/10 03:32:36;;;;;;;9.60;8.17;;;11.30;54.60;;;;;;5051737;28;20283;-48
2021/10/10 03:35:03;;;;;;;10.17;8.80;;;11.20;54.70;;;;;;5051504;28;20228;-45
2021/10/10 03:37:28;;;;;;;10.40;8.43;;;11.20;54.90;;;;;;5051998;28;20610;-45
2021/10/10 03:39:55;;;;;;;9.90;8.37;;;11.20;55.00;;;;;;5051643;28;20427;-45
2021/10/10 03:42:21;;;;;;;8.90;8.00;;;11.20;55.00;;;;;;5051634;28;20215;-47
2021/10/10 03:44:46;;;;;;;12.40;10.13;;;11.20;54.80;;;;;;5051564;28;20423;-45
2021/10/10 03:47:15;;;;;;;9.50;8.50;;;11.20;54.90;;;;;;5051839;28;20691;-46
2021/10/10 03:49:41;;;;;;;10.13;7.60;;;11.10;55.00;;;;;;5051335;28;20236;-45
2021/10/10 03:52:08;;;;;;;11.87;10.63;;;11.10;55.10;;;;;;5049826;28;20796;-47
2021/10/10 03:57:23;;;;;;;10.63;9.00;;;11.10;55.10;;;;;;5049719;28;20434;-45
2021/10/10 03:59:55;;;;;;;11.20;8.30;;;11.10;55.00;;;;;;5051441;28;20518;-47
2021/10/10 04:02:20;;;;;;;11.20;8.70;;;11.00;54.60;;;;;;5051146;28;20431;-46
2021/10/10 04:04:46;;;;;;;10.50;7.87;;;11.00;54.30;;;;;;5051079;28;20446;-45
2021/10/10 04:07:11;;;;;;;14.70;8.03;;;11.00;54.20;;;;;;5051576;28;20193;-45
2021/10/10 04:09:37;;;;;;;10.17;8.23;;;10.90;54.00;;;;;;5051053;28;20222;-45
2021/10/10 04:12:03;;;;;;;10.27;8.50;;;10.80;54.10;;;;;;5051205;28;20200;-45
2021/10/10 04:14:28;;;;;;;10.40;8.67;;;10.80;54.10;;;;;;5050777;28;20706;-46
2021/10/10 04:16:54;;;;;;;11.07;8.93;;;10.80;54.10;;;;;;5050800;28;20225;-47
2021/10/10 04:19:20;;;;;;;10.97;8.90;;;10.80;54.30;;;;;;5050577;28;20221;-47
2021/10/10 04:21:45;;;;;;;9.33;8.37;;;10.80;54.50;;;;;;5051260;28;20679;-45
2021/10/10 04:24:11;;;;;;;8.97;8.00;;;10.80;54.80;;;;;;5050807;28;20699;-49
2021/10/10 04:26:36;;;;;;;9.27;7.70;;;10.70;54.70;;;;;;5051166;28;20644;-48
2021/10/10 04:29:02;;;;;;;12.30;8.30;;;10.80;54.50;;;;;;5050763;28;20189;-48
2021/10/10 04:31:27;;;;;;;10.30;8.57;;;10.80;54.30;;;;;;5050870;28;20215;-47
2021/10/10 04:33:53;;;;;;;10.93;8.33;;;10.70;54.30;;;;;;5050727;28;20215;-45
2021/10/10 04:36:18;;;;;;;9.63;8.60;;;10.70;54.60;;;;;;5051307;28;20219;-46
2021/10/10 04:38:44;;;;;;;10.30;8.20;;;10.70;54.80;;;;;;5051013;28;20188;-49
2021/10/10 04:41:10;;;;;;;9.40;8.13;;;10.70;55.40;;;;;;5050890;28;20184;-45
2021/10/10 04:43:35;;;;;;;14.53;9.50;;;10.60;54.80;;;;;;5049028;28;20192;-47
2021/10/10 04:46:01;;;;;;;10.27;8.43;;;10.60;54.80;;;;;;5050902;28;20266;-45
2021/10/10 04:48:26;;;;;;;11.17;7.27;;;10.60;54.70;;;;;;5051440;28;20236;-46
2021/10/10 04:50:52;;;;;;;10.50;7.93;;;10.60;54.60;;;;;;5050846;28;20303;-45
2021/10/10 04:53:18;;;;;;;13.60;8.97;;;10.60;54.50;;;;;;5050526;28;20200;-45
2021/10/10 04:55:44;;;;;;;9.03;8.10;;;10.60;54.40;;;;;;5050604;28;20561;-46
2021/10/10 04:58:09;;;;;;;11.87;8.43;;;10.50;54.30;;;;;;5048812;28;20423;-45
2021/10/10 05:00:35;;;;;;;10.77;7.77;;;10.50;54.70;;;;;;5050515;28;20192;-45
2021/10/10 05:03:00;;;;;;;9.73;8.53;;;10.50;54.90;;;;;;5050682;28;20197;-45
2021/10/10 05:05:26;;;;;;;14.10;8.93;;;10.50;54.80;;;;;;5050370;28;20280;-46
2021/10/10 05:07:51;;;;;;;11.13;8.67;;;10.50;55.10;;;;;;5051057;28;20196;-46
2021/10/10 05:10:17;;;;;;;12.37;8.30;;;10.40;55.40;;;;;;5048877;28;20185;-47
2021/10/10 05:12:43;;;;;;;10.40;9.20;;;10.40;55.40;;;;;;5050726;28;20198;-45
2021/10/10 05:15:09;;;;;;;10.63;8.03;;;10.30;55.80;;;;;;5052336;28;20224;-45
2021/10/10 05:17:34;;;;;;;8.43;7.50;;;10.30;55.90;;;;;;5054775;28;20234;-51
2021/10/10 05:20:00;;;;;;;12.07;8.77;;;10.30;55.70;;;;;;5054150;28;20520;-45
2021/10/10 05:22:25;;;;;;;11.10;8.63;;;10.20;55.70;;;;;;5054364;28;20658;-45
2021/10/10 05:24:54;;;;;;;11.43;7.90;;;10.20;55.70;;;;;;5054124;28;20721;-45
2021/10/10 05:27:19;;;;;;;10.80;9.20;;;10.20;55.90;;;;;;5054600;28;20275;-45
2021/10/10 05:29:45;;;;;;;11.30;9.70;;;10.10;55.60;;;;;;5054085;28;20514;-46
2021/10/10 05:32:10;;;;;;;12.47;10.33;;;9.90;57.00;;;;;;5054381;28;20239;-46
2021/10/10 05:34:36;;;;;;;10.17;8.50;;;9.90;57.10;;;;;;5053600;28;20261;-48
2021/10/10 05:37:02;;;;;;;10.57;8.87;;;9.60;57.40;;;;;;5052831;28;20557;-45
2021/10/10 05:39:27;;;;;;;11.53;8.00;;;9.40;58.20;;;;;;5053920;28;20193;-45
2021/10/10 05:41:53;;;;;;;11.27;8.70;;;9.30;58.40;;;;;;5054082;28;20670;-47
2021/10/10 05:44:19;;;;;;;12.17;7.83;;;9.40;58.40;;;;;;5054063;28;20200;-46
2021/10/10 05:46:44;;;;;;;12.00;8.27;;;9.50;58.00;;;;;;5054226;28;20193;-45
2021/10/10 05:49:10;;;;;;;10.97;9.10;;;9.60;57.90;;;;;;5053410;28;20279;-45
2021/10/10 05:51:35;;;;;;;11.93;8.57;;;9.70;57.80;;;;;;5053761;28;20196;-46
2021/10/10 05:54:02;;;;;;;11.03;8.37;;;9.70;57.60;;;;;;5053302;28;20657;-46
2021/10/10 05:56:28;;;;;;;9.10;8.00;;;9.80;57.70;;;;;;5052847;28;20200;-46
2021/10/10 05:59:02;;;;;;;9.03;7.80;;;9.80;57.90;;;;;;5052748;28;20429;-49
2021/10/10 06:01:28;;;;;;;11.30;8.90;;;9.80;58.00;;;;;;5053431;28;20192;-47
2021/10/10 06:03:53;;;;;;;10.80;8.40;;;10.00;57.20;;;;;;5051743;28;20431;-49
2021/10/10 06:06:19;;;;;;;10.57;8.47;;;9.90;58.20;;;;;;5054023;28;20627;-45
2021/10/10 06:08:44;;;;;;;10.20;8.73;;;9.80;58.50;;;;;;5053107;28;20234;-45
2021/10/10 06:11:10;;;;;;;12.73;9.47;;;9.90;58.80;;;;;;5053505;28;21008;-46
2021/10/10 06:13:38;;;;;;;10.93;9.13;;;9.90;58.80;;;;;;5053302;28;20294;-45
2021/10/10 06:16:06;;;;;;;13.93;9.87;;;9.90;58.90;;;;;;5053385;28;20204;-47
2021/10/10 06:18:32;;;;;;;12.63;9.43;;;10.00;57.90;;;;;;5053659;28;20455;-45
2021/10/10 06:20:57;;;;;;;10.70;8.93;;;10.00;57.80;;;;;;5052638;28;20785;-45
2021/10/10 06:23:23;;;;;;;11.20;9.50;;;10.00;58.00;;;;;;5053575;28;20423;-48
2021/10/10 06:25:49;;;;;;;12.67;9.50;;;10.10;57.90;;;;;;5052655;28;20199;-45
2021/10/10 06:28:14;;;;;;;11.03;9.23;;;10.30;57.60;;;;;;5053548;28;20238;-46
2021/10/10 06:30:40;;;;;;;11.27;9.53;;;10.30;57.70;;;;;;5051688;28;20262;-45
2021/10/10 06:33:05;;;;;;;14.93;9.80;;;10.50;57.80;;;;;;5052958;28;20192;-48
2021/10/10 06:35:32;;;;;;;10.47;9.37;;;10.70;57.50;;;;;;5052803;28;20212;-47
2021/10/10 06:37:58;;;;;;;10.60;9.37;;;10.90;57.30;;;;;;5052979;28;21025;-51
2021/10/10 06:40:24;;;;;;;13.23;9.10;;;11.00;56.80;;;;;;5052797;28;20192;-49
2021/10/10 06:42:49;;;;;;;9.93;8.60;;;11.20;56.80;;;;;;5052744;28;20631;-49
2021/10/10 06:45:15;;;;;;;11.37;9.00;;;11.40;56.40;;;;;;5052722;28;20203;-46
2021/10/10 06:47:40;;;;;;;11.93;9.37;;;11.60;56.30;;;;;;5052778;28;20963;-51
2021/10/10 06:50:07;;;;;;;12.40;8.60;;;11.90;56.00;;;;;;5052246;28;20232;-52
2021/10/10 06:52:32;;;;;;;10.23;8.23;;;12.10;55.00;;;;;;5052498;28;20204;-50
2021/10/10 06:54:58;;;;;;;9.97;8.07;;;12.20;53.90;;;;;;5052291;28;20993;-48
2021/10/10 06:57:28;;;;;;;12.73;8.60;;;12.40;53.40;;;;;;5049301;28;20195;-49
2021/10/10 06:59:56;;;;;;;13.10;9.00;;;12.60;53.20;;;;;;5052181;28;20193;-47
2021/10/10 07:02:21;;;;;;;8.90;7.97;;;12.80;52.70;;;;;;5052458;28;20461;-47
2021/10/10 07:04:47;;;;;;;10.53;8.40;;;13.00;52.60;;;;;;5051887;28;20511;-46
2021/10/10 07:07:12;;;;;;;10.23;9.23;;;13.10;52.10;;;;;;5052678;28;20666;-49
2021/10/10 07:09:38;;;;;;;9.27;8.30;;;13.30;51.90;;;;;;5052006;28;20242;-49
2021/10/10 07:12:04;;;;;;;11.73;9.77;;;13.40;51.80;;;;;;5052307;28;20214;-48
2021/10/10 07:14:30;;;;;;;10.90;8.80;;;13.50;51.80;;;;;;5051667;28;20242;-48
2021/10/10 07:16:57;;;;;;;12.23;9.27;;;13.60;52.20;;;;;;5052542;28;20278;-49
2021/10/10 07:19:25;;;;;;;10.40;9.40;;;13.70;52.10;;;;;;5051702;28;20430;-47
2021/10/10 07:21:56;;;;;;;10.10;8.70;;;13.80;51.70;;;;;;5051725;28;20470;-49
2021/10/10 07:26:55;;;;;;;11.37;9.40;;;14.00;51.40;;;;;;5052367;28;20506;-51
2021/10/10 07:29:20;;;;;;;13.33;10.00;;;14.20;51.50;;;;;;5051852;28;20438;-50
2021/10/10 07:31:46;;;;;;;13.37;9.80;;;14.30;51.30;;;;;;5052324;28;20469;-51
2021/10/10 07:34:11;;;;;;;11.23;9.77;;;14.40;50.80;;;;;;5051344;28;20599;-47
2021/10/10 07:36:37;;;;;;;13.53;9.97;;;14.60;50.80;;;;;;5051682;28;20201;-51
2021/10/10 07:39:03;;;;;;;14.37;10.40;;;14.60;50.60;;;;;;5051328;28;20189;-46
2021/10/10 07:41:30;;;;;;;12.30;10.10;;;14.60;50.10;;;;;;5051627;28;20674;-51
2021/10/10 07:43:55;;;;;;;13.07;9.77;;;14.60;50.60;;;;;;5051282;28;20443;-50
2021/10/10 07:46:23;;;;;;;16.60;9.60;;;14.60;50.80;;;;;;5052295;28;20419;-47
2021/10/10 07:48:49;;;;;;;10.87;9.73;;;14.60;51.10;;;;;;5049530;28;20244;-48
2021/10/10 07:51:16;;;;;;;11.33;10.10;;;14.60;51.10;;;;;;5051507;28;20557;-49
2021/10/10 07:53:41;;;;;;;10.67;9.53;;;14.70;51.40;;;;;;5051158;28;20307;-50
2021/10/10 07:56:07;;;;;;;10.10;9.10;;;14.60;51.60;;;;;;5051971;28;20506;-49
2021/10/10 07:58:33;;;;;;;13.13;10.27;;;14.60;52.00;;;;;;5049826;28;20582;-51
2021/10/10 08:00:59;;;;;;;14.07;11.10;;;14.70;52.20;;;;;;5051008;28;20189;-50
2021/10/10 08:03:24;;;;;;;11.83;10.57;;;14.70;52.10;;;;;;5051490;28;20236;-50
2021/10/10 08:05:50;;;;;;;12.17;10.00;;;14.80;52.10;;;;;;5051353;28;20451;-50
2021/10/10 08:08:16;;;;;;;12.73;11.10;;;14.90;52.50;;;;;;5051943;28;20207;-50
2021/10/10 08:10:42;;;;;;;10.83;9.70;;;14.90;52.50;;;;;;5033115;28;20231;-47
2021/10/10 08:13:07;;;;;;;13.77;9.37;;;15.00;53.00;;;;;;5051594;28;20264;-45
2021/10/10 08:15:33;;;;;;;16.50;11.17;;;15.00;53.10;;;;;;5049296;28;20227;-48
2021/10/10 08:17:59;;;;;;;18.10;10.40;;;15.10;53.00;;;;;;5051583;28;20219;-45
2021/10/10 08:20:25;;;;;;;15.27;10.00;;;15.20;52.40;;;;;;5051026;28;20852;-45
2021/10/10 08:22:50;;;;;;;12.63;11.37;;;15.30;52.20;;;;;;5051016;28;20215;-45
2021/10/10 08:25:16;;;;;;;14.47;11.10;;;15.30;52.20;;;;;;5051144;28;20266;-45
2021/10/10 08:27:46;;;;;;;12.27;11.00;;;15.30;52.80;;;;;;5051345;28;20276;-45
2021/10/10 08:30:14;;;;;;;15.77;11.50;;;15.40;52.30;;;;;;5050883;28;20215;-46
2021/10/10 08:32:41;;;;;;;13.67;10.87;;;15.40;52.40;;;;;;5051337;28;20996;-46
2021/10/10 08:35:08;;;;;;;13.43;11.97;;;15.30;52.00;;;;;;5050758;28;20879;-46
2021/10/10 08:37:34;;;;;;;13.57;12.10;;;15.40;51.60;;;;;;5051550;28;20449;-44
2021/10/10 08:40:00;;;;;;;12.80;11.47;;;15.50;50.40;;;;;;5050807;28;20415;-45
2021/10/10 08:42:32;;;;;;;13.30;11.37;;;15.60;51.10;;;;;;5049323;28;20419;-45
2021/10/10 08:45:15;;;;;;;12.23;10.97;;;15.80;51.00;;;;;;5050553;28;20546;-45
2021/10/10 08:47:44;;;;;;;17.77;11.50;;;15.90;50.70;;;;;;5051300;28;20815;-45
2021/10/10 08:50:14;;;;;;;20.40;12.60;;;15.70;51.50;;;;;;5054483;28;20463;-45
2021/10/10 08:52:40;;;;;;;15.43;11.73;;;15.70;50.30;;;;;;5054956;28;20443;-45
2021/10/10 08:55:06;;;;;;;15.10;12.67;;;15.90;49.60;;;;;;5054539;28;20485;-50
2021/10/10 08:57:33;;;;;;;15.90;14.30;;;16.10;49.40;;;;;;5053231;28;20266;-47
2021/10/10 09:00:05;;;;;;;15.43;12.40;;;16.30;48.70;;;;;;5054448;28;20782;-45
2021/10/10 09:02:32;;;;;;;15.33;12.10;;;16.50;48.30;;;;;;5054382;28;20426;-48
2021/10/10 09:04:58;;;;;;;16.53;13.03;;;16.50;47.70;;;;;;5054244;28;20433;-46
2021/10/10 09:07:24;;;;;;;16.40;12.00;;;16.40;47.50;;;;;;5055150;28;20427;-45
2021/10/10 09:09:50;;;;;;;18.40;12.10;;;16.30;47.60;;;;;;5053021;28;20921;-47
2021/10/10 09:12:15;;;;;;;16.70;11.13;;;16.40;47.50;;;;;;5054371;28;22010;-45
2021/10/10 09:14:52;;;;;;;16.47;12.20;;;16.80;47.80;;;;;;5054149;28;20228;-45
2021/10/10 09:17:22;;;;;;;13.73;11.60;;;16.80;46.50;;;;;;5055049;28;20283;-46
2021/10/10 09:20:07;;;;;;;14.97;11.13;;;17.00;46.00;;;;;;5054205;28;20418;-45
2021/10/10 09:22:36;;;;;;;15.33;12.30;;;17.10;45.40;;;;;;5054219;28;20415;-45
2021/10/10 09:25:11;;;;;;;15.13;12.23;;;17.20;45.60;;;;;;5054179;28;20487;-45
2021/10/10 09:27:37;;;;;;;11.50;10.00;;;17.40;45.30;;;;;;5054557;28;20475;-47
2021/10/10 09:30:04;;;;;;;13.37;11.30;;;17.60;45.30;;;;;;5054240;28;20431;-46
2021/10/10 09:32:31;;;;;;;15.70;11.03;;;17.60;44.30;;;;;;5054017;28;20200;-45
2021/10/10 09:34:57;;;;;;;20.30;12.90;;;17.40;44.50;;;;;;5052218;28;21005;-45
2021/10/10 09:37:37;;;;;;;13.13;11.70;;;17.10;44.80;;;;;;5054575;28;20437;-45
2021/10/10 09:42:48;;;;;;;15.43;11.60;;;17.30;45.00;;;;;;5053710;28;20430;-45
2021/10/10 09:45:14;;;;;;;14.33;11.03;;;17.70;44.50;;;;;;5053719;28;20914;-45
2021/10/10 09:47:55;;;;;;;14.50;11.20;;;17.70;43.20;;;;;;5054197;28;20434;-45
2021/10/10 09:50:25;;;;;;;18.50;11.50;;;18.00;44.00;;;;;;5053622;28;20216;-45
2021/10/10 09:53:07;;;;;;;20.37;12.33;;;17.90;42.80;;;;;;5053514;28;20451;-46
2021/10/10 09:55:36;;;;;;;13.90;11.47;;;18.10;42.90;;;;;;5053371;28;20478;-46
2021/10/10 09:58:03;;;;;;;13.30;11.33;;;18.30;42.10;;;;;;5052348;28;20442;-46
2021/10/10 10:00:35;;;;;;;15.10;9.87;;;18.50;43.00;;;;;;5052281;28;20485;-45
2021/10/10 10:03:06;;;;;;;14.37;11.60;;;18.70;41.80;;;;;;5052508;28;20776;-45
2021/10/10 10:05:33;;;;;;;15.40;10.80;;;18.60;40.80;;;;;;5053336;28;20439;-45
2021/10/10 10:08:00;;;;;;;13.60;10.80;;;18.40;41.40;;;;;;5053928;28;20434;-45
2021/10/10 10:10:28;;;;;;;12.27;10.60;;;18.60;41.20;;;;;;5053137;28;20425;-46
2021/10/10 10:12:56;;;;;;;13.30;10.70;;;18.70;40.60;;;;;;5053184;28;20428;-46
2021/10/10 10:15:28;;;;;;;13.37;9.40;;;18.20;39.50;;;;;;5053404;28;20483;-45
2021/10/10 10:17:56;;;;;;;11.87;9.80;;;18.30;41.60;;;;;;5053766;28;20930;-45
2021/10/10 10:20:23;;;;;;;16.60;10.00;;;18.50;40.50;;;;;;5052984;28;20427;-47
2021/10/10 10:22:54;;;;;;;11.50;9.00;;;18.70;40.80;;;;;;5053255;28;20441;-45
2021/10/10 10:25:22;;;;;;;12.03;10.70;;;18.90;39.60;;;;;;5053338;28;20437;-45
2021/10/10 10:27:49;;;;;;;11.70;9.20;;;18.60;39.40;;;;;;5051832;28;20508;-45
2021/10/10 10:30:16;;;;;;;11.00;9.30;;;18.50;39.10;;;;;;5052829;28;20442;-45
2021/10/10 10:32:42;;;;;;;12.60;9.70;;;18.30;40.00;;;;;;5053004;28;20943;-46
2021/10/10 10:35:14;;;;;;;12.30;9.27;;;18.80;40.10;;;;;;5052853;28;20482;-45
2021/10/10 10:37:42;;;;;;;10.17;9.17;;;19.20;39.70;;;;;;5053205;28;20250;-45
2021/10/10 10:40:14;;;;;;;13.23;9.03;;;19.40;39.60;;;;;;5052595;28;20827;-46
2021/10/10 10:42:41;;;;;;;13.00;9.00;;;19.60;38.70;;;;;;5052672;28;20427;-45
2021/10/10 10:45:35;;;;;;;12.17;10.07;;;19.00;38.90;;;;;;5052698;28;20427;-49
2021/10/10 10:48:04;;;;;;;10.70;9.40;;;19.10;39.20;;;;;;5052876;28;20911;-45
2021/10/10 10:50:44;;;;;;;12.30;8.63;;;18.90;38.70;;;;;;5052134;28;20435;-45
2021/10/10 10:53:13;;;;;;;13.67;10.00;;;19.20;39.70;;;;;;5052949;28;20435;-45
2021/10/10 10:55:44;;;;;;;12.80;9.23;;;19.60;40.00;;;;;;5050614;28;20576;-46
2021/10/10 10:58:14;;;;;;;16.83;10.27;;;20.20;38.90;;;;;;5050981;28;20431;-45
2021/10/10 11:01:03;;;;;;;11.70;8.90;;;20.10;37.80;;;;;;5038909;28;20419;-47
2021/10/10 11:03:30;;;;;;;9.77;8.20;;;20.20;39.30;;;;;;5052973;28;20899;-46
2021/10/10 11:06:22;;;;;;;11.00;9.23;;;20.50;38.70;;;;;;5052141;28;20466;-47
2021/10/10 11:08:47;;;;;;;12.03;9.63;;;20.90;37.80;;;;;;5032388;28;20440;-45
2021/10/10 11:11:16;;;;;;;10.80;9.57;;;20.60;38.50;;;;;;5051486;28;20415;-46
2021/10/10 11:14:07;;;;;;;9.93;8.93;;;20.70;38.20;;;;;;5051277;28;20956;-45
2021/10/10 11:16:34;;;;;;;11.60;9.50;;;20.20;38.70;;;;;;5047655;28;20913;-45
2021/10/10 11:19:07;;;;;;;9.47;8.57;;;20.60;38.30;;;;;;5052025;28;20435;-46
2021/10/10 11:21:38;;;;;;;12.77;9.30;;;20.50;37.20;;;;;;5050319;28;20450;-47
2021/10/10 11:24:10;;;;;;;12.00;8.77;;;20.90;38.60;;;;;;5051954;28;20434;-45
2021/10/10 11:26:38;;;;;;;11.90;9.70;;;21.40;37.80;;;;;;5052446;28;20641;-46
2021/10/10 11:29:09;;;;;;;15.30;9.67;;;21.70;37.00;;;;;;5051889;28;20541;-47
2021/10/10 11:31:37;;;;;;;10.43;9.07;;;21.80;36.00;;;;;;5051835;28;20510;-45
2021/10/10 11:34:11;;;;;;;11.83;9.60;;;21.70;36.70;;;;;;5051685;28;20478;-48
2021/10/10 11:36:47;;;;;;;10.87;8.57;;;22.00;36.80;;;;;;5052394;28;20426;-45
2021/10/10 11:39:16;;;;;;;10.77;9.50;;;22.10;35.40;;;;;;5051584;28;20460;-47
2021/10/10 11:41:46;;;;;;;10.20;7.87;;;21.90;35.30;;;;;;5051573;28;20789;-47
2021/10/10 11:44:15;;;;;;;10.87;8.37;;;21.90;35.80;;;;;;5051612;28;20438;-48
2021/10/10 11:46:51;;;;;;;11.03;9.17;;;22.10;35.20;;;;;;5051895;28;20953;-48
2021/10/10 11:49:39;;;;;;;14.33;8.50;;;21.70;35.20;;;;;;5050719;28;20478;-46
2021/10/10 11:57:33;;;;;;;15.90;9.00;;;22.40;35.00;;;;;;5049963;28;20435;-45
2021/10/10 12:00:01;;;;;;;12.00;9.20;;;22.50;34.00;;;;;;5050912;28;20770;-45
2021/10/10 12:02:40;;;;;;;11.47;9.20;;;22.00;35.10;;;;;;5051332;28;20494;-46
2021/10/10 12:05:08;;;;;;;10.70;9.30;;;22.10;36.20;;;;;;5051262;28;20481;-47
2021/10/10 12:07:35;;;;;;;9.50;8.53;;;22.50;36.00;;;;;;5051436;28;20933;-47
2021/10/10 12:10:02;;;;;;;12.73;9.30;;;22.80;34.90;;;;;;5051182;28;20466;-49
2021/10/10 12:12:28;;;;;;;10.13;8.60;;;22.70;34.30;;;;;;5051172;28;20427;-47
2021/10/10 12:14:56;;;;;;;13.90;10.10;;;22.90;34.20;;;;;;5049043;28;20498;-45
2021/10/10 12:17:57;;;;;;;9.57;8.00;;;23.20;34.10;;;;;;5051434;28;20223;-47
2021/10/10 12:20:27;;;;;;;10.63;9.37;;;23.40;34.40;;;;;;5033087;28;20443;-45
2021/10/10 12:22:56;;;;;;;9.30;8.40;;;23.50;33.30;;;;;;5051190;28;20442;-46
2021/10/10 12:25:32;;;;;;;13.87;9.00;;;23.30;32.90;;;;;;5051392;28;20907;-51
2021/10/10 12:28:10;;;;;;;9.73;8.73;;;22.80;33.30;;;;;;5051386;28;20445;-49
2021/10/10 12:30:54;;;;;;;8.80;7.80;;;23.00;33.00;;;;;;5050190;28;21602;-47
2021/10/10 12:33:31;;;;;;;14.77;8.77;;;23.20;33.60;;;;;;5051451;28;20492;-47
2021/10/10 12:36:08;;;;;;;10.43;8.60;;;23.70;33.00;;;;;;5050806;28;20442;-45
2021/10/10 12:38:38;;;;;;;10.47;8.60;;;24.00;33.30;;;;;;5051131;28;20830;-47
2021/10/10 12:41:19;;;;;;;10.30;9.20;;;24.10;32.90;;;;;;5049012;28;20446;-46
2021/10/10 12:43:46;;;;;;;12.53;8.90;;;24.30;32.20;;;;;;5050926;28;20454;-50
2021/10/10 12:46:12;;;;;;;8.90;7.93;;;24.40;31.70;;;;;;5051321;28;20423;-48
2021/10/10 12:48:38;;;;;;;9.03;7.70;;;24.30;31.10;;;;;;5050543;28;20470;-50
2021/10/10 12:51:13;;;;;;;10.63;8.23;;;24.20;32.10;;;;;;5050818;28;20185;-46